createdAt,value
2023-02-03T00:01:06.101Z,28.35
2023-02-03T00:03:33.772Z,29.20
2023-02-03T00:06:03.877Z,29.17
2023-02-03T00:08:32.100Z,26.73
2023-02-03T00:11:00.434Z,28.80
2023-02-03T00:13:28.022Z,29.05
2023-02-03T00:15:55.512Z,28.33
2023-02-03T00:18:23.040Z,24.60
2023-02-03T00:20:50.473Z,24.98
2023-02-03T00:23:18.036Z,23.88
2023-02-03T00:25:45.672Z,30.50
2023-02-03T00:28:13.193Z,25.88
2023-02-03T00:30:40.895Z,25.83
2023-02-03T00:33:08.470Z,18.75
2023-02-03T00:35:39.848Z,26.70
2023-02-03T00:38:07.411Z,23.40
2023-02-03T00:40:35.463Z,22.05
2023-02-03T00:43:03.019Z,24.00
2023-02-03T00:45:30.646Z,25.33
2023-02-03T00:47:58.283Z,20.10
2023-02-03T00:50:26.023Z,34.35
2023-02-03T00:52:53.611Z,22.50
2023-02-03T00:55:21.140Z,27.10
2023-02-03T00:57:48.689Z,30.58
2023-02-03T01:00:16.733Z,32.03
2023-02-03T01:02:44.403Z,31.63
2023-02-03T01:05:12.455Z,31.85
2023-02-03T01:07:40.019Z,28.63
2023-02-03T01:10:08.047Z,29.65
2023-02-03T01:12:35.609Z,31.33
2023-02-03T01:15:03.138Z,30.75
2023-02-03T01:17:31.735Z,31.83
2023-02-03T01:19:59.460Z,21.73
2023-02-03T01:22:32.338Z,22.05
2023-02-03T01:24:59.856Z,21.48
2023-02-03T01:27:27.460Z,17.05
2023-02-03T01:29:57.014Z,16.95
2023-02-03T01:32:24.640Z,20.75
2023-02-03T01:34:52.147Z,19.92
2023-02-03T01:37:19.724Z,20.95
2023-02-03T01:39:48.194Z,18.55
2023-02-03T01:42:34.534Z,17.95
2023-02-03T01:45:02.266Z,26.13
2023-02-03T01:47:36.918Z,22.27
2023-02-03T01:50:14.216Z,15.98
2023-02-03T01:52:44.388Z,17.77
2023-02-03T01:55:17.779Z,22.13
2023-02-03T01:57:54.541Z,19.42
2023-02-03T02:00:22.443Z,18.52
2023-02-03T02:02:50.827Z,15.23
2023-02-03T02:05:48.713Z,15.02
2023-02-03T02:08:18.703Z,16.85
2023-02-03T02:10:46.393Z,20.08
2023-02-03T02:13:16.081Z,15.23
2023-02-03T02:16:11.291Z,13.88
2023-02-03T02:18:42.269Z,14.63
2023-02-03T02:21:31.400Z,18.67
2023-02-03T02:24:23.330Z,15.70
2023-02-03T02:27:03.070Z,17.13
2023-02-03T02:30:05.932Z,23.40
2023-02-03T02:32:48.979Z,17.48
2023-02-03T02:35:21.107Z,17.27
2023-02-03T02:38:13.115Z,18.50
2023-02-03T02:41:00.738Z,17.08
2023-02-03T02:43:28.361Z,18.60
2023-02-03T02:46:31.230Z,15.40
2023-02-03T02:49:21.988Z,20.83
2023-02-03T02:51:53.663Z,23.83
2023-02-03T02:54:25.706Z,23.35
2023-02-03T02:56:58.318Z,26.05
2023-02-03T02:59:28.245Z,23.23
2023-02-03T03:01:55.902Z,30.20
2023-02-03T03:04:26.913Z,27.30
2023-02-03T03:07:08.814Z,29.90
2023-02-03T03:09:43.284Z,26.00
2023-02-03T03:14:49.517Z,25.38
2023-02-03T03:17:24.538Z,27.38
2023-02-03T03:19:56.610Z,31.90
2023-02-03T03:22:37.132Z,28.15
2023-02-03T03:25:15.191Z,38.42
2023-02-03T03:28:05.347Z,28.60
2023-02-03T03:30:38.165Z,26.40
2023-02-03T03:33:08.101Z,36.75
2023-02-03T03:35:59.699Z,31.05
2023-02-03T03:38:36.783Z,34.20
2023-02-03T03:41:16.204Z,27.63
2023-02-03T03:43:47.605Z,26.98
2023-02-03T03:46:22.145Z,28.88
2023-02-03T03:49:01.186Z,30.27
2023-02-03T03:51:37.507Z,32.38
2023-02-03T03:54:09.757Z,29.35
2023-02-03T03:56:45.472Z,27.63
2023-02-03T03:59:17.529Z,30.67
2023-02-03T04:01:45.859Z,29.92
2023-02-03T04:04:15.334Z,30.33
2023-02-03T04:06:42.917Z,31.52
2023-02-03T04:09:10.607Z,30.45
2023-02-03T04:11:56.378Z,41.80
2023-02-03T04:14:23.895Z,42.15
2023-02-03T04:16:51.447Z,38.25
2023-02-03T04:19:18.829Z,37.00
2023-02-03T04:21:46.374Z,35.95
2023-02-03T04:24:14.457Z,32.72
2023-02-03T04:26:41.965Z,34.47
2023-02-03T04:29:09.834Z,32.30
2023-02-03T04:31:38.894Z,30.80
2023-02-03T04:34:06.854Z,28.20
2023-02-03T04:36:34.529Z,31.65
2023-02-03T04:39:02.087Z,36.28
2023-02-03T04:41:29.820Z,35.13
2023-02-03T04:43:57.545Z,42.00
2023-02-03T04:46:25.066Z,31.83
2023-02-03T04:48:52.560Z,36.60
2023-02-03T04:51:22.245Z,31.17
2023-02-03T04:53:52.451Z,41.80
2023-02-03T04:56:19.947Z,44.75
2023-02-03T04:58:47.477Z,39.92
2023-02-03T05:01:14.985Z,34.83
2023-02-03T05:03:42.622Z,37.28
2023-02-03T05:06:10.204Z,35.65
2023-02-03T05:08:37.708Z,41.30
2023-02-03T05:11:06.651Z,36.75
2023-02-03T05:13:34.500Z,29.23
2023-02-03T05:16:02.176Z,31.75
2023-02-03T05:18:29.828Z,37.30
2023-02-03T05:20:57.487Z,31.38
2023-02-03T05:23:25.137Z,28.10
2023-02-03T05:25:52.657Z,33.40
2023-02-03T05:28:20.273Z,36.38
2023-02-03T05:30:47.794Z,32.83
2023-02-03T05:33:15.703Z,33.40
2023-02-03T05:35:43.433Z,32.03
2023-02-03T05:38:10.909Z,36.28
2023-02-03T05:40:57.025Z,34.85
2023-02-03T05:43:24.522Z,33.60
2023-02-03T05:45:52.068Z,41.80
2023-02-03T05:48:19.634Z,31.33
2023-02-03T05:50:47.146Z,29.10
2023-02-03T05:53:14.880Z,33.67
2023-02-03T05:55:42.421Z,27.92
2023-02-03T05:58:10.035Z,26.77
2023-02-03T06:00:37.787Z,22.90
2023-02-03T06:03:05.890Z,29.67
2023-02-03T06:05:35.158Z,29.52
2023-02-03T06:08:02.698Z,28.73
2023-02-03T06:10:30.337Z,36.53
2023-02-03T06:12:57.955Z,34.75
2023-02-03T06:15:25.847Z,37.00
2023-02-03T06:17:53.308Z,29.77
2023-02-03T06:20:21.359Z,26.58
2023-02-03T06:22:48.903Z,32.33
2023-02-03T06:25:16.545Z,30.17
2023-02-03T06:27:44.120Z,20.92
2023-02-03T06:30:12.404Z,29.15
2023-02-03T06:32:39.889Z,29.38
2023-02-03T06:35:07.749Z,10.50
2023-02-03T06:37:38.823Z,11.13
2023-02-03T06:40:06.948Z,27.38
2023-02-03T06:42:34.507Z,31.85
2023-02-03T06:45:02.025Z,24.20
2023-02-03T06:47:31.462Z,20.92
2023-02-03T06:49:58.991Z,20.58
2023-02-03T06:52:26.681Z,23.58
2023-02-03T06:54:54.210Z,30.88
2023-02-03T06:57:21.743Z,39.95
2023-02-03T06:59:49.255Z,35.15
2023-02-03T07:02:17.218Z,34.05
2023-02-03T07:04:45.424Z,26.65
2023-02-03T07:07:13.485Z,26.15
2023-02-03T07:09:41.596Z,21.65
2023-02-03T07:12:10.405Z,19.67
2023-02-03T07:14:39.634Z,35.90
2023-02-03T07:17:09.120Z,37.00
2023-02-03T07:19:36.602Z,37.90
2023-02-03T07:22:05.164Z,42.20
2023-02-03T07:25:18.570Z,38.08
2023-02-03T07:27:52.344Z,44.38
2023-02-03T07:30:20.351Z,46.28
2023-02-03T07:32:51.903Z,52.42
2023-02-03T07:35:20.531Z,38.70
2023-02-03T07:37:48.090Z,38.67
2023-02-03T07:40:25.497Z,40.78
2023-02-03T07:42:56.133Z,48.03
2023-02-03T07:45:25.139Z,41.83
2023-02-03T07:47:52.598Z,46.15
2023-02-03T07:50:20.144Z,50.15
2023-02-03T07:52:47.558Z,49.17
2023-02-03T07:55:15.013Z,55.92
2023-02-03T07:57:46.711Z,46.10
2023-02-03T08:00:16.444Z,49.33
2023-02-03T08:02:44.393Z,43.22
2023-02-03T08:05:13.011Z,48.65
2023-02-03T08:07:41.543Z,41.20
2023-02-03T08:10:13.602Z,39.42
2023-02-03T08:12:46.865Z,35.22
2023-02-03T08:15:15.205Z,42.25
2023-02-03T08:17:43.338Z,40.30
2023-02-03T08:20:13.114Z,37.15
2023-02-03T08:22:40.650Z,36.72
2023-02-03T08:25:09.174Z,30.60
2023-02-03T08:27:36.878Z,35.65
2023-02-03T08:30:04.967Z,31.83
2023-02-03T08:32:34.060Z,37.78
2023-02-03T08:35:01.673Z,33.22
2023-02-03T08:37:32.065Z,38.60
2023-02-03T08:40:00.583Z,33.35
2023-02-03T08:42:28.373Z,34.85
2023-02-03T08:44:56.101Z,34.90
2023-02-03T08:47:23.881Z,42.47
2023-02-03T08:49:51.436Z,41.78
2023-02-03T08:52:19.391Z,41.50
2023-02-03T08:54:47.618Z,37.58
2023-02-03T08:57:15.691Z,40.88
2023-02-03T08:59:44.379Z,42.78
2023-02-03T09:02:16.912Z,47.78
2023-02-03T09:04:45.405Z,37.55
2023-02-03T09:07:15.747Z,32.70
2023-02-03T09:09:43.939Z,35.92
2023-02-03T09:12:13.281Z,39.67
2023-02-03T09:14:43.765Z,37.80
2023-02-03T09:17:13.174Z,38.70
2023-02-03T09:19:40.748Z,43.60
2023-02-03T09:22:08.347Z,43.90
2023-02-03T09:24:36.762Z,44.92
2023-02-03T09:27:04.452Z,46.90
2023-02-03T09:29:34.363Z,50.60
2023-02-03T09:32:07.281Z,46.65
2023-02-03T09:34:34.969Z,53.10
2023-02-03T09:37:02.655Z,51.58
2023-02-03T09:39:30.479Z,54.78
2023-02-03T09:42:09.438Z,57.92
2023-02-03T09:44:55.141Z,50.00
2023-02-03T09:47:29.145Z,54.42
2023-02-03T09:50:02.801Z,48.17
2023-02-03T09:52:42.287Z,50.80
2023-02-03T09:55:54.282Z,45.30
2023-02-03T09:58:26.348Z,47.65
2023-02-03T10:00:58.469Z,35.80
2023-02-03T10:03:46.474Z,40.08
2023-02-03T10:06:32.297Z,38.45
2023-02-03T10:09:18.964Z,35.55
2023-02-03T10:12:05.160Z,33.88
2023-02-03T10:15:03.471Z,28.58
2023-02-03T10:17:36.764Z,27.13
2023-02-03T10:20:22.583Z,18.92
2023-02-03T10:22:57.527Z,21.05
2023-02-03T10:25:28.815Z,22.85
2023-02-03T10:28:01.693Z,23.83
2023-02-03T10:30:38.580Z,20.57
2023-02-03T10:33:18.340Z,20.63
2023-02-03T10:36:15.595Z,17.63
2023-02-03T10:38:45.921Z,19.45
2023-02-03T10:41:15.170Z,15.55
2023-02-03T10:43:48.903Z,22.42
2023-02-03T10:46:20.900Z,18.92
2023-02-03T10:48:52.000Z,15.40
2023-02-03T10:51:21.403Z,21.25
2023-02-03T10:53:55.731Z,18.27
2023-02-03T10:56:31.047Z,18.70
2023-02-03T10:59:00.788Z,17.67
2023-02-03T11:01:44.154Z,19.10
2023-02-03T11:04:28.497Z,18.70
2023-02-03T11:07:06.479Z,19.38
2023-02-03T11:09:37.851Z,17.83
2023-02-03T11:12:17.153Z,18.08
2023-02-03T11:14:54.784Z,15.95
2023-02-03T11:17:27.403Z,18.50
2023-02-03T11:20:07.569Z,13.60
2023-02-03T11:22:38.802Z,15.85
2023-02-03T11:25:24.818Z,19.08
2023-02-03T11:27:56.157Z,15.32
2023-02-03T11:30:27.181Z,16.48
2023-02-03T11:32:55.207Z,15.20
2023-02-03T11:35:29.381Z,16.10
2023-02-03T11:38:03.271Z,12.23
2023-02-03T11:40:34.661Z,9.43
2023-02-03T11:43:06.155Z,11.43
2023-02-03T11:45:43.723Z,10.18
2023-02-03T11:48:11.155Z,9.73
2023-02-03T11:50:54.407Z,6.43
2023-02-03T11:53:56.873Z,8.20
2023-02-03T11:56:52.707Z,9.50
2023-02-03T11:59:43.298Z,9.43
2023-02-03T12:02:48.631Z,7.97
2023-02-03T12:05:28.436Z,11.93
2023-02-03T12:08:10.108Z,14.10
2023-02-03T12:10:51.619Z,13.95
2023-02-03T12:13:21.715Z,9.30
2023-02-03T12:16:22.022Z,12.32
2023-02-03T12:19:11.572Z,10.05
2023-02-03T12:22:29.420Z,10.75
2023-02-03T12:25:18.549Z,9.20
2023-02-03T12:27:57.200Z,8.57
2023-02-03T12:30:47.103Z,10.13
2023-02-03T12:33:28.099Z,10.73
2023-02-03T12:36:04.658Z,9.65
2023-02-03T12:38:44.141Z,8.48
2023-02-03T12:41:21.145Z,11.95
2023-02-03T12:43:52.920Z,12.60
2023-02-03T12:46:32.627Z,13.90
2023-02-03T12:49:12.373Z,8.73
2023-02-03T12:51:47.088Z,16.50
2023-02-03T12:54:26.101Z,12.15
2023-02-03T12:57:01.263Z,21.67
2023-02-03T12:59:33.159Z,19.48
2023-02-03T13:02:18.278Z,17.48
2023-02-03T13:04:56.736Z,17.35
2023-02-03T13:07:30.222Z,16.02
2023-02-03T13:10:04.133Z,16.50
2023-02-03T13:15:28.523Z,11.53
2023-02-03T13:18:05.562Z,21.50
2023-02-03T13:20:39.373Z,22.23
2023-02-03T13:25:54.179Z,23.20
2023-02-03T13:28:33.626Z,24.47
2023-02-03T13:31:37.200Z,25.40
2023-02-03T13:34:29.285Z,23.65
2023-02-03T13:37:13.243Z,21.55
2023-02-03T13:39:54.900Z,20.10
2023-02-03T13:42:22.894Z,20.77
2023-02-03T13:45:13.574Z,17.35
2023-02-03T13:47:48.496Z,14.85
2023-02-03T13:50:30.041Z,13.70
2023-02-03T13:53:03.087Z,13.57
2023-02-03T13:55:39.553Z,14.45
2023-02-03T13:58:29.233Z,12.38
2023-02-03T14:00:56.889Z,11.25
2023-02-03T14:03:27.437Z,10.18
2023-02-03T14:06:01.318Z,13.52
2023-02-03T14:11:33.692Z,9.90
2023-02-03T14:14:10.308Z,13.43
2023-02-03T14:16:42.226Z,14.15
2023-02-03T14:19:33.596Z,12.40
2023-02-03T14:22:18.068Z,14.65
2023-02-03T14:24:50.011Z,14.07
2023-02-03T14:27:29.334Z,18.15
2023-02-03T14:30:19.900Z,14.80
2023-02-03T14:32:58.445Z,19.00
2023-02-03T14:35:37.913Z,17.02
2023-02-03T14:38:14.966Z,25.38
2023-02-03T14:40:56.017Z,26.52
2023-02-03T14:43:50.559Z,20.02
2023-02-03T14:46:54.904Z,15.43
2023-02-03T14:49:51.774Z,18.65
2023-02-03T14:53:23.700Z,15.65
2023-02-03T14:56:17.278Z,14.07
2023-02-03T14:59:02.516Z,14.40
2023-02-03T15:01:36.252Z,17.35
2023-02-03T15:04:12.897Z,19.77
2023-02-03T15:06:46.418Z,19.02
2023-02-03T15:09:23.446Z,24.05
2023-02-03T15:11:51.273Z,22.52
2023-02-03T15:14:25.313Z,22.00
2023-02-03T15:17:01.736Z,25.02
2023-02-03T15:19:49.622Z,25.17
2023-02-03T15:22:26.684Z,22.20
2023-02-03T15:24:58.187Z,23.40
2023-02-03T15:27:28.359Z,16.35
2023-02-03T15:29:59.604Z,21.10
2023-02-03T15:32:30.642Z,23.92
2023-02-03T15:34:59.486Z,28.13
2023-02-03T15:37:37.744Z,23.45
2023-02-03T15:40:16.798Z,27.15
2023-02-03T15:43:05.897Z,23.50
2023-02-03T15:45:35.720Z,21.90
2023-02-03T15:48:37.172Z,21.08
2023-02-03T15:51:12.217Z,20.70
2023-02-03T15:54:01.479Z,19.30
2023-02-03T15:56:44.779Z,24.90
2023-02-03T15:59:35.045Z,21.58
2023-02-03T16:02:27.375Z,23.85
2023-02-03T16:04:55.426Z,24.85
2023-02-03T16:07:29.593Z,28.95
2023-02-03T16:09:58.764Z,28.98
2023-02-03T16:12:28.894Z,29.10
2023-02-03T16:14:57.928Z,31.58
2023-02-03T16:17:33.353Z,21.85
2023-02-03T16:20:13.044Z,24.00
2023-02-03T16:22:40.544Z,24.38
2023-02-03T16:25:23.316Z,26.17
2023-02-03T16:28:39.948Z,20.92
2023-02-03T16:31:36.697Z,28.83
2023-02-03T16:34:33.551Z,29.55
2023-02-03T16:37:19.396Z,30.13
2023-02-03T16:40:05.705Z,28.77
2023-02-03T16:42:59.810Z,29.60
2023-02-03T16:45:45.965Z,25.02
2023-02-03T16:48:32.360Z,28.35
2023-02-03T16:51:07.300Z,26.83
2023-02-03T16:53:35.184Z,31.83
2023-02-03T16:56:07.257Z,32.03
2023-02-03T16:58:35.109Z,34.25
2023-02-03T17:01:05.781Z,28.10
2023-02-03T17:03:35.799Z,28.33
2023-02-03T17:06:06.897Z,30.95
2023-02-03T17:08:35.346Z,35.53
2023-02-03T17:11:05.952Z,25.63
2023-02-03T17:13:34.122Z,27.63
2023-02-03T17:16:01.870Z,29.92
2023-02-03T17:18:29.544Z,43.67
2023-02-03T17:21:05.865Z,38.15
2023-02-03T17:23:33.589Z,46.63
2023-02-03T17:26:01.417Z,45.05
2023-02-03T17:28:29.286Z,45.63
2023-02-03T17:31:06.020Z,44.88
2023-02-03T17:33:35.324Z,42.33
2023-02-03T17:36:07.973Z,46.95
2023-02-03T17:55:15.864Z,46.65
2023-02-03T17:57:43.689Z,48.47
2023-02-03T18:00:11.921Z,40.85
2023-02-03T18:02:43.527Z,44.15
2023-02-03T18:05:11.473Z,41.33
2023-02-03T18:07:39.042Z,41.83
2023-02-03T18:10:06.778Z,34.17
2023-02-03T18:12:34.519Z,34.10
2023-02-03T18:15:02.249Z,43.80
2023-02-03T18:17:31.095Z,39.85
2023-02-03T18:20:00.898Z,32.70
2023-02-03T18:22:28.787Z,35.00
2023-02-03T18:24:56.424Z,44.72
2023-02-03T18:27:23.963Z,40.00
2023-02-03T18:29:51.566Z,40.63
2023-02-03T18:32:20.250Z,37.92
2023-02-03T18:34:47.999Z,40.25
2023-02-03T18:37:15.781Z,40.03
2023-02-03T18:39:43.339Z,38.80
2023-02-03T18:42:11.226Z,45.42
2023-02-03T18:44:39.910Z,38.70
2023-02-03T18:47:08.081Z,35.70
2023-02-03T18:49:45.399Z,35.45
2023-02-03T18:52:12.906Z,35.78
2023-02-03T18:54:40.461Z,37.90
2023-02-03T18:57:13.230Z,37.45
2023-02-03T18:59:40.797Z,36.17
2023-02-03T19:02:11.252Z,39.00
2023-02-03T19:04:41.008Z,37.50
2023-02-03T19:07:08.577Z,31.35
2023-02-03T19:09:39.944Z,27.42
2023-02-03T19:12:08.716Z,29.00
2023-02-03T19:14:36.680Z,30.83
2023-02-03T19:17:04.870Z,30.23
2023-02-03T19:19:32.354Z,33.17
2023-02-03T19:21:59.983Z,28.52
2023-02-03T19:24:27.582Z,28.73
2023-02-03T19:26:55.623Z,35.63
2023-02-03T19:29:23.117Z,35.35
2023-02-03T19:31:51.020Z,31.45
2023-02-03T19:34:18.889Z,32.78
2023-02-03T19:36:47.414Z,31.10
2023-02-03T19:39:15.549Z,28.98
2023-02-03T19:41:43.156Z,27.50
2023-02-03T19:44:10.721Z,30.90
2023-02-03T19:46:38.497Z,29.92
2023-02-03T19:49:13.509Z,29.98
2023-02-03T19:51:42.795Z,35.00
2023-02-03T19:54:15.820Z,27.95
2023-02-03T19:56:44.985Z,30.63
2023-02-03T19:59:12.978Z,31.42
2023-02-03T20:01:40.650Z,29.30
2023-02-03T20:04:08.281Z,31.40
2023-02-03T20:06:36.329Z,32.17
2023-02-03T20:09:06.397Z,37.30
2023-02-03T20:11:38.391Z,27.15
2023-02-03T20:14:14.140Z,37.85
2023-02-03T20:16:43.052Z,41.30
2023-02-03T20:19:10.844Z,30.13
2023-02-03T20:21:38.539Z,43.00
2023-02-03T20:24:06.015Z,39.85
2023-02-03T20:26:33.594Z,42.83
2023-02-03T20:29:01.156Z,46.15
2023-02-03T20:31:29.006Z,46.55
2023-02-03T20:33:56.676Z,44.80
2023-02-03T20:36:24.334Z,46.60
2023-02-03T20:38:52.157Z,51.65
2023-02-03T20:41:19.983Z,52.63
2023-02-03T20:43:48.297Z,56.20
2023-02-03T20:46:18.998Z,52.38
2023-02-03T20:48:46.596Z,52.45
2023-02-03T20:51:16.128Z,57.10
2023-02-03T20:53:44.640Z,56.50
2023-02-03T20:56:18.446Z,54.03
2023-02-03T20:58:46.204Z,48.47
2023-02-03T21:01:22.116Z,46.90
2023-02-03T21:04:07.971Z,45.10
2023-02-03T21:06:36.167Z,40.95
2023-02-03T21:09:18.432Z,41.58
2023-02-03T21:11:46.077Z,38.15
2023-02-03T21:14:23.986Z,58.28
2023-02-03T21:16:54.325Z,34.50
2023-02-03T21:19:33.829Z,32.95
2023-02-03T21:22:17.697Z,31.27
2023-02-03T21:24:59.189Z,28.02
2023-02-03T21:27:32.528Z,33.05
2023-02-03T21:30:02.613Z,28.00
2023-02-03T21:32:40.472Z,28.83
2023-02-03T21:35:31.195Z,30.23
2023-02-03T21:38:04.304Z,30.83
2023-02-03T21:40:34.674Z,25.20
2023-02-03T21:43:03.536Z,32.17
2023-02-03T21:45:42.358Z,31.42
2023-02-03T21:48:29.675Z,26.08
2023-02-03T21:51:01.546Z,28.98
2023-02-03T21:53:33.409Z,26.95
2023-02-03T21:56:25.178Z,24.13
2023-02-03T21:58:57.690Z,30.55
2023-02-03T22:01:27.010Z,27.15
2023-02-03T22:03:56.206Z,29.35
2023-02-03T22:06:26.538Z,28.80
2023-02-03T22:08:56.888Z,24.90
2023-02-03T22:11:27.878Z,32.55
2023-02-03T22:13:55.945Z,34.58
2023-02-03T22:16:24.144Z,30.92
2023-02-03T22:18:52.395Z,35.25
2023-02-03T22:21:20.058Z,35.22
2023-02-03T22:23:48.456Z,43.40
2023-02-03T22:26:17.607Z,43.97
2023-02-03T22:28:45.534Z,36.10
2023-02-03T22:31:13.838Z,39.95
2023-02-03T22:33:42.393Z,38.35
2023-02-03T22:36:11.037Z,42.65
2023-02-03T22:38:40.159Z,47.85
2023-02-03T22:41:09.538Z,46.03
2023-02-03T22:43:37.156Z,40.78
2023-02-03T22:46:07.070Z,45.90
2023-02-03T22:48:34.784Z,42.35
2023-02-03T22:51:02.315Z,35.08
2023-02-03T22:53:29.940Z,70.65
2023-02-03T22:55:57.499Z,57.80
2023-02-03T22:58:25.018Z,64.75
2023-02-03T23:00:52.480Z,64.60
2023-02-03T23:03:20.062Z,62.47
2023-02-03T23:05:47.618Z,66.43
2023-02-03T23:08:15.114Z,67.35
2023-02-03T23:10:42.620Z,58.95
2023-02-03T23:13:10.186Z,61.22
2023-02-03T23:15:37.989Z,50.30
2023-02-03T23:18:06.025Z,60.92
2023-02-03T23:20:33.879Z,62.67
2023-02-03T23:23:01.373Z,54.95
2023-02-03T23:25:28.927Z,58.42
2023-02-03T23:27:56.610Z,54.85
2023-02-03T23:30:24.271Z,56.10
2023-02-03T23:32:51.759Z,62.75
2023-02-03T23:35:37.692Z,50.80
2023-02-03T23:38:05.257Z,50.95
2023-02-03T23:40:33.180Z,49.83
2023-02-03T23:43:00.918Z,50.60
2023-02-03T23:45:28.521Z,48.25
2023-02-03T23:47:56.110Z,53.38
2023-02-03T23:50:23.790Z,49.85
2023-02-03T23:52:51.349Z,53.63
2023-02-03T23:55:21.327Z,58.17
2023-02-03T23:57:48.908Z,53.97
